sensor_id;sensor_type;location;lat;lon;timestamp;pressure;altitude;pressure_sealevel;temperature;humidity
55113;BME280;41006;50.920;3.456;2023-05-25T00:00:29;102349.25;;;12.16;100.00
55113;BME280;41006;50.920;3.456;2023-05-25T00:00:59;102347.44;;;12.13;100.00
55113;BME280;41006;50.920;3.456;2023-05-25T00:01:30;102346.53;;;12.05;100.00
55113;BME280;41006;50.920;3.456;2023-05-25T00:02:03;102347.44;;;12.12;100.00
55113;BME280;41006;50.920;3.456;2023-05-25T00:02:37;102348.28;;;12.03;100.00
55113;BME280;41006;50.920;3.456;2023-05-25T00:03:09;102346.50;;;11.94;100.00
55113;BME280;41006;50.920;3.456;2023-05-25T00:03:40;102353.63;;;12.06;100.00
55113;BME280;41006;50.920;3.456;2023-05-25T00:04:12;102353.63;;;12.05;100.00
55113;BME280;41006;50.920;3.456;2023-05-25T00:04:45;102349.16;;;11.96;100.00
55113;BME280;41006;50.920;3.456;2023-05-25T00:05:20;102354.50;;;12.02;100.00
55113;BME280;41006;50.920;3.456;2023-05-25T00:05:53;102351.84;;;12.05;100.00
55113;BME280;41006;50.920;3.456;2023-05-25T00:06:25;102348.28;;;12.00;100.00
55113;BME280;41006;50.920;3.456;2023-05-25T00:07:03;102357.22;;;12.11;100.00
55113;BME280;41006;50.920;3.456;2023-05-25T00:07:33;102350.13;;;12.15;100.00
55113;BME280;41006;50.920;3.456;2023-05-25T00:08:04;102351.91;;;12.17;100.00
55113;BME280;41006;50.920;3.456;2023-05-25T00:08:42;102344.81;;;12.18;100.00
55113;BME280;41006;50.920;3.456;2023-05-25T00:09:14;102351.00;;;12.09;100.00
55113;BME280;41006;50.920;3.456;2023-05-25T00:09:45;102350.16;;;12.19;100.00
55113;BME280;41006;50.920;3.456;2023-05-25T00:10:18;102346.59;;;12.24;100.00
55113;BME280;41006;50.920;3.456;2023-05-25T00:10:51;102352.78;;;12.18;100.00
55113;BME280;41006;50.920;3.456;2023-05-25T00:11:24;102348.41;;;12.26;100.00
55113;BME280;41006;50.920;3.456;2023-05-25T00:11:57;102352.84;;;12.24;100.00
55113;BME280;41006;50.920;3.456;2023-05-25T00:12:28;102346.56;;;12.13;100.00
55113;BME280;41006;50.920;3.456;2023-05-25T00:12:59;102362.53;;;12.11;100.00
55113;BME280;41006;50.920;3.456;2023-05-25T00:13:30;102343.91;;;12.14;100.00
55113;BME280;41006;50.920;3.456;2023-05-25T00:14:00;102348.34;;;12.17;100.00
55113;BME280;41006;50.920;3.456;2023-05-25T00:14:33;102358.06;;;12.10;100.00
55113;BME280;41006;50.920;3.456;2023-05-25T00:15:06;102356.28;;;12.05;100.00
55113;BME280;41006;50.920;3.456;2023-05-25T00:15:39;102351.00;;;12.11;100.00
55113;BME280;41006;50.920;3.456;2023-05-25T00:16:12;102348.34;;;12.09;100.00
55113;BME280;41006;50.920;3.456;2023-05-25T00:16:45;102347.41;;;12.09;100.00
55113;BME280;41006;50.920;3.456;2023-05-25T00:17:19;102345.69;;;12.11;100.00
55113;BME280;41006;50.920;3.456;2023-05-25T00:17:55;102351.88;;;12.08;100.00
55113;BME280;41006;50.920;3.456;2023-05-25T00:18:26;102355.34;;;11.95;100.00
55113;BME280;41006;50.920;3.456;2023-05-25T00:19:00;102358.88;;;11.95;100.00
55113;BME280;41006;50.920;3.456;2023-05-25T00:19:33;102351.81;;;11.94;100.00
55113;BME280;41006;50.920;3.456;2023-05-25T00:20:07;102359.72;;;11.88;100.00
55113;BME280;41006;50.920;3.456;2023-05-25T00:20:38;102350.88;;;11.89;100.00
55113;BME280;41006;50.920;3.456;2023-05-25T00:21:11;102351.75;;;11.90;100.00
55113;BME280;41006;50.920;3.456;2023-05-25T00:21:43;102352.63;;;11.90;100.00
55113;BME280;41006;50.920;3.456;2023-05-25T00:22:19;102346.41;;;11.87;100.00
55113;BME280;41006;50.920;3.456;2023-05-25T00:22:49;102348.16;;;11.83;100.00
55113;BME280;41006;50.920;3.456;2023-05-25T00:23:21;102354.34;;;11.80;100.00
55113;BME280;41006;50.920;3.456;2023-05-25T00:23:51;102345.50;;;11.80;100.00
55113;BME280;41006;50.920;3.456;2023-05-25T00:24:24;102352.56;;;11.76;100.00
55113;BME280;41006;50.920;3.456;2023-05-25T00:24:57;102347.28;;;11.87;100.00
55113;BME280;41006;50.920;3.456;2023-05-25T00:25:29;102343.69;;;11.79;100.00
55113;BME280;41006;50.920;3.456;2023-05-25T00:26:02;102341.88;;;11.69;100.00
55113;BME280;41006;50.920;3.456;2023-05-25T00:26:34;102343.66;;;11.71;100.00
55113;BME280;41006;50.920;3.456;2023-05-25T00:27:04;102348.94;;;11.65;100.00
55113;BME280;41006;50.920;3.456;2023-05-25T00:27:36;102348.88;;;11.57;100.00
55113;BME280;41006;50.920;3.456;2023-05-25T00:28:06;102350.69;;;11.58;100.00
55113;BME280;41006;50.920;3.456;2023-05-25T00:28:39;102356.94;;;11.66;100.00
55113;BME280;41006;50.920;3.456;2023-05-25T00:29:14;102342.81;;;11.78;100.00
55113;BME280;41006;50.920;3.456;2023-05-25T00:29:47;102343.69;;;11.79;100.00
55113;BME280;41006;50.920;3.456;2023-05-25T00:30:17;102340.16;;;11.77;100.00
55113;BME280;41006;50.920;3.456;2023-05-25T00:30:48;102348.16;;;11.81;100.00
55113;BME280;41006;50.920;3.456;2023-05-25T00:31:18;102341.88;;;11.72;100.00
55113;BME280;41006;50.920;3.456;2023-05-25T00:31:52;102344.56;;;11.73;100.00
55113;BME280;41006;50.920;3.456;2023-05-25T00:32:22;102346.31;;;11.68;100.00
55113;BME280;41006;50.920;3.456;2023-05-25T00:32:55;102344.56;;;11.72;100.00
55113;BME280;41006;50.920;3.456;2023-05-25T00:33:26;102346.38;;;11.76;100.00
55113;BME280;41006;50.920;3.456;2023-05-25T00:33:56;102342.81;;;11.78;100.00
55113;BME280;41006;50.920;3.456;2023-05-25T00:34:27;102342.78;;;11.74;100.00
55113;BME280;41006;50.920;3.456;2023-05-25T00:34:57;102349.00;;;11.71;100.00
55113;BME280;41006;50.920;3.456;2023-05-25T00:35:28;102349.84;;;11.67;100.00
55113;BME280;41006;50.920;3.456;2023-05-25T00:36:01;102348.91;;;11.60;100.00
55113;BME280;41006;50.920;3.456;2023-05-25T00:36:33;102353.31;;;11.57;100.00
55113;BME280;41006;50.920;3.456;2023-05-25T00:37:04;102344.50;;;11.67;100.00
55113;BME280;41006;50.920;3.456;2023-05-25T00:37:34;102347.19;;;11.69;100.00
55113;BME280;41006;50.920;3.456;2023-05-25T00:38:11;102345.44;;;11.69;100.00
55113;BME280;41006;50.920;3.456;2023-05-25T00:38:42;102349.00;;;11.73;100.00
55113;BME280;41006;50.920;3.456;2023-05-25T00:39:17;102346.34;;;11.77;100.00
55113;BME280;41006;50.920;3.456;2023-05-25T00:39:48;102350.78;;;11.77;100.00
55113;BME280;41006;50.920;3.456;2023-05-25T00:40:21;102347.22;;;11.75;100.00
55113;BME280;41006;50.920;3.456;2023-05-25T00:40:54;102349.00;;;11.77;100.00
55113;BME280;41006;50.920;3.456;2023-05-25T00:41:27;102347.22;;;11.72;100.00
55113;BME280;41006;50.920;3.456;2023-05-25T00:42:01;102353.44;;;11.78;100.00
55113;BME280;41006;50.920;3.456;2023-05-25T00:42:32;102356.16;;;11.83;100.00
55113;BME280;41006;50.920;3.456;2023-05-25T00:43:05;102356.16;;;11.84;100.00
55113;BME280;41006;50.920;3.456;2023-05-25T00:43:37;102352.59;;;11.87;100.00
55113;BME280;41006;50.920;3.456;2023-05-25T00:44:07;102345.50;;;11.83;100.00
55113;BME280;41006;50.920;3.456;2023-05-25T00:44:37;102356.16;;;11.83;100.00
55113;BME280;41006;50.920;3.456;2023-05-25T00:45:08;102363.25;;;11.90;100.00
55113;BME280;41006;50.920;3.456;2023-05-25T00:45:41;102349.06;;;11.88;100.00
55113;BME280;41006;50.920;3.456;2023-05-25T00:46:15;102353.56;;;11.94;100.00
55113;BME280;41006;50.920;3.456;2023-05-25T00:46:48;102360.59;;;11.90;100.00
55113;BME280;41006;50.920;3.456;2023-05-25T00:47:19;102357.91;;;11.79;100.00
55113;BME280;41006;50.920;3.456;2023-05-25T00:47:53;102354.34;;;11.79;100.00
55113;BME280;41006;50.920;3.456;2023-05-25T00:48:30;102364.94;;;11.70;100.00
55113;BME280;41006;50.920;3.456;2023-05-25T00:49:03;102364.00;;;11.61;100.00
55113;BME280;41006;50.920;3.456;2023-05-25T00:49:34;102348.94;;;11.63;100.00
55113;BME280;41006;50.920;3.456;2023-05-25T00:50:09;102363.13;;;11.62;100.00
55113;BME280;41006;50.920;3.456;2023-05-25T00:50:45;102358.66;;;11.58;100.00
55113;BME280;41006;50.920;3.456;2023-05-25T00:51:20;102361.28;;;11.57;100.00
55113;BME280;41006;50.920;3.456;2023-05-25T00:51:56;102356.81;;;11.50;100.00
55113;BME280;41006;50.920;3.456;2023-05-25T00:52:31;102362.22;;;11.62;100.00
55113;BME280;41006;50.920;3.456;2023-05-25T00:53:02;102363.97;;;11.60;100.00
55113;BME280;41006;50.920;3.456;2023-05-25T00:53:37;102355.06;;;11.53;100.00
55113;BME280;41006;50.920;3.456;2023-05-25T00:54:13;102369.22;;;11.52;100.00
55113;BME280;41006;50.920;3.456;2023-05-25T00:54:46;102362.19;;;11.54;100.00
55113;BME280;41006;50.920;3.456;2023-05-25T00:55:22;102363.13;;;11.61;100.00
55113;BME280;41006;50.920;3.456;2023-05-25T00:56:37;102362.06;;;11.40;100.00
55113;BME280;41006;50.920;3.456;2023-05-25T00:57:13;102361.13;;;11.32;100.00
55113;BME280;41006;50.920;3.456;2023-05-25T00:57:47;102357.63;;;11.38;100.00
55113;BME280;41006;50.920;3.456;2023-05-25T00:58:23;102367.44;;;11.46;100.00
55113;BME280;41006;50.920;3.456;2023-05-25T00:58:56;102362.13;;;11.46;100.00
55113;BME280;41006;50.920;3.456;2023-05-25T00:59:45;102367.44;;;11.48;100.00
55113;BME280;41006;50.920;3.456;2023-05-25T01:00:20;102362.19;;;11.60;100.00
55113;BME280;41006;50.920;3.456;2023-05-25T01:00:53;102365.69;;;11.52;100.00
55113;BME280;41006;50.920;3.456;2023-05-25T01:01:27;102362.19;;;11.56;100.00
55113;BME280;41006;50.920;3.456;2023-05-25T01:02:03;102367.50;;;11.57;100.00
55113;BME280;41006;50.920;3.456;2023-05-25T01:02:39;102361.31;;;11.58;100.00
55113;BME280;41006;50.920;3.456;2023-05-25T01:03:14;102359.53;;;11.56;100.00
55113;BME280;41006;50.920;3.456;2023-05-25T01:03:48;102362.13;;;11.46;100.00
55113;BME280;41006;50.920;3.456;2023-05-25T01:04:25;102364.72;;;11.42;100.00
55113;BME280;41006;50.920;3.456;2023-05-25T01:04:59;102355.81;;;11.34;100.00
55113;BME280;41006;50.920;3.456;2023-05-25T01:05:31;102362.94;;;11.38;100.00
55113;BME280;41006;50.920;3.456;2023-05-25T01:06:10;102361.19;;;11.41;100.00
55113;BME280;41006;50.920;3.456;2023-05-25T01:06:47;102354.13;;;11.46;100.00
55113;BME280;41006;50.920;3.456;2023-05-25T01:07:23;102358.47;;;11.34;100.00
55113;BME280;41006;50.920;3.456;2023-05-25T01:07:58;102366.47;;;11.37;100.00
55113;BME280;41006;50.920;3.456;2023-05-25T01:08:33;102361.22;;;11.43;100.00
55113;BME280;41006;50.920;3.456;2023-05-25T01:09:07;102365.66;;;11.47;100.00
55113;BME280;41006;50.920;3.456;2023-05-25T01:09:44;102361.25;;;11.52;100.00
55113;BME280;41006;50.920;3.456;2023-05-25T01:10:18;102361.22;;;11.44;100.00
55113;BME280;41006;50.920;3.456;2023-05-25T01:10:51;102366.53;;;11.43;100.00
55113;BME280;41006;50.920;3.456;2023-05-25T01:11:31;102366.56;;;11.46;100.00
55113;BME280;41006;50.920;3.456;2023-05-25T01:12:02;102362.97;;;11.41;100.00
55113;BME280;41006;50.920;3.456;2023-05-25T01:12:37;102362.16;;;11.51;100.00
55113;BME280;41006;50.920;3.456;2023-05-25T01:13:14;102363.97;;;11.60;100.00
55113;BME280;41006;50.920;3.456;2023-05-25T01:13:51;102367.50;;;11.53;100.00
55113;BME280;41006;50.920;3.456;2023-05-25T01:14:23;102361.25;;;11.46;100.00
55113;BME280;41006;50.920;3.456;2023-05-25T01:14:56;102363.88;;;11.43;100.00
55113;BME280;41006;50.920;3.456;2023-05-25T01:15:31;102370.94;;;11.45;100.00
55113;BME280;41006;50.920;3.456;2023-05-25T01:16:04;102363.00;;;11.47;100.00
55113;BME280;41006;50.920;3.456;2023-05-25T01:16:35;102366.56;;;11.46;100.00
55113;BME280;41006;50.920;3.456;2023-05-25T01:17:09;102371.88;;;11.52;100.00
55113;BME280;41006;50.920;3.456;2023-05-25T01:17:43;102365.66;;;11.48;100.00
55113;BME280;41006;50.920;3.456;2023-05-25T01:18:16;102364.78;;;11.48;100.00
55113;BME280;41006;50.920;3.456;2023-05-25T01:18:47;102370.03;;;11.39;100.00
55113;BME280;41006;50.920;3.456;2023-05-25T01:19:19;102366.50;;;11.40;100.00
55113;BME280;41006;50.920;3.456;2023-05-25T01:19:53;102367.34;;;11.36;100.00
55113;BME280;41006;50.920;3.456;2023-05-25T01:20:25;102370.91;;;11.36;100.00
55113;BME280;41006;50.920;3.456;2023-05-25T01:21:03;102367.41;;;11.45;100.00
55113;BME280;41006;50.920;3.456;2023-05-25T01:21:54;102370.16;;;11.53;100.00
55113;BME280;41006;50.920;3.456;2023-05-25T01:22:31;102364.84;;;11.57;100.00
55113;BME280;41006;50.920;3.456;2023-05-25T01:23:11;102374.56;;;11.55;100.00
55113;BME280;41006;50.920;3.456;2023-05-25T01:23:49;102368.31;;;11.48;100.00
55113;BME280;41006;50.920;3.456;2023-05-25T01:25:14;102369.19;;;11.44;100.00
55113;BME280;41006;50.920;3.456;2023-05-25T01:25:50;102374.53;;;11.47;100.00
55113;BME280;41006;50.920;3.456;2023-05-25T01:26:25;102374.47;;;11.41;100.00
55113;BME280;41006;50.920;3.456;2023-05-25T01:28:34;102375.41;;;11.48;100.00
55113;BME280;41006;50.920;3.456;2023-05-25T01:28:46;102374.53;;;11.47;100.00
55113;BME280;41006;50.920;3.456;2023-05-25T01:29:21;102373.75;;;11.61;100.00
55113;BME280;41006;50.920;3.456;2023-05-25T01:29:54;102369.28;;;11.57;100.00
55113;BME280;41006;50.920;3.456;2023-05-25T01:30:33;102369.25;;;11.54;100.00
55113;BME280;41006;50.920;3.456;2023-05-25T01:31:06;102374.53;;;11.51;100.00
55113;BME280;41006;50.920;3.456;2023-05-25T01:31:38;102375.41;;;11.48;100.00
55113;BME280;41006;50.920;3.456;2023-05-25T01:32:13;102371.91;;;11.54;100.00
55113;BME280;41006;50.920;3.456;2023-05-25T01:32:44;102377.19;;;11.46;100.00
55113;BME280;41006;50.920;3.456;2023-05-25T01:33:19;102368.28;;;11.41;100.00
55113;BME280;41006;50.920;3.456;2023-05-25T01:33:53;102368.28;;;11.39;100.00
55113;BME280;41006;50.920;3.456;2023-05-25T01:34:25;102376.28;;;11.42;100.00
55113;BME280;41006;50.920;3.456;2023-05-25T01:35:01;102371.81;;;11.41;100.00
55113;BME280;41006;50.920;3.456;2023-05-25T01:35:36;102367.34;;;11.36;100.00
55113;BME280;41006;50.920;3.456;2023-05-25T01:36:08;102372.59;;;11.26;100.00
55113;BME280;41006;50.920;3.456;2023-05-25T01:36:40;102369.13;;;11.38;100.00
55113;BME280;41006;50.920;3.456;2023-05-25T01:37:13;102373.56;;;11.38;100.00
55113;BME280;41006;50.920;3.456;2023-05-25T01:37:47;102376.19;;;11.32;100.00
55113;BME280;41006;50.920;3.456;2023-05-25T01:38:21;102371.72;;;11.27;100.00
55113;BME280;41006;50.920;3.456;2023-05-25T01:38:56;102373.44;;;11.19;100.00
55113;BME280;41006;50.920;3.456;2023-05-25T01:39:29;102376.91;;;11.15;100.00
55113;BME280;41006;50.920;3.456;2023-05-25T01:40:05;102370.78;;;11.24;100.00
55113;BME280;41006;50.920;3.456;2023-05-25T01:40:37;102378.72;;;11.18;100.00
55113;BME280;41006;50.920;3.456;2023-05-25T01:41:08;102380.47;;;11.14;100.00
55113;BME280;41006;50.920;3.456;2023-05-25T01:41:38;102381.38;;;11.16;100.00
55113;BME280;41006;50.920;3.456;2023-05-25T01:42:13;102376.94;;;11.17;100.00
55113;BME280;41006;50.920;3.456;2023-05-25T01:42:46;102378.75;;;11.19;100.00
55113;BME280;41006;50.920;3.456;2023-05-25T01:43:16;102377.81;;;11.17;100.00
55113;BME280;41006;50.920;3.456;2023-05-25T01:43:47;102379.53;;;11.10;100.00
55113;BME280;41006;50.920;3.456;2023-05-25T01:44:20;102376.91;;;11.14;100.00
55113;BME280;41006;50.920;3.456;2023-05-25T01:44:50;102377.81;;;11.13;100.00
55113;BME280;41006;50.920;3.456;2023-05-25T01:45:21;102380.41;;;11.08;100.00
55113;BME280;41006;50.920;3.456;2023-05-25T01:46:01;102380.38;;;11.05;100.00
55113;BME280;41006;50.920;3.456;2023-05-25T01:46:37;102378.66;;;11.10;100.00
55113;BME280;41006;50.920;3.456;2023-05-25T01:47:40;102383.06;;;11.06;100.00
55113;BME280;41006;50.920;3.456;2023-05-25T01:48:19;102375.06;;;11.05;100.00
55113;BME280;41006;50.920;3.456;2023-05-25T01:48:56;102383.06;;;11.08;100.00
55113;BME280;41006;50.920;3.456;2023-05-25T01:50:50;102376.00;;;11.10;100.00
55113;BME280;41006;50.920;3.456;2023-05-25T01:53:11;102378.63;;;11.07;100.00
55113;BME280;41006;50.920;3.456;2023-05-25T01:53:53;102386.59;;;11.08;100.00
55113;BME280;41006;50.920;3.456;2023-05-25T01:54:30;102384.91;;;11.17;100.00
55113;BME280;41006;50.920;3.456;2023-05-25T01:55:10;102384.84;;;11.10;100.00
55113;BME280;41006;50.920;3.456;2023-05-25T01:55:46;102382.19;;;11.12;100.00
55113;BME280;41006;50.920;3.456;2023-05-25T01:56:18;102378.69;;;11.13;100.00
55113;BME280;41006;50.920;3.456;2023-05-25T01:56:51;102384.06;;;11.22;100.00
55113;BME280;41006;50.920;3.456;2023-05-25T01:57:27;102380.56;;;11.26;100.00
55113;BME280;41006;50.920;3.456;2023-05-25T01:58:01;102382.31;;;11.24;100.00
55113;BME280;41006;50.920;3.456;2023-05-25T01:58:37;102382.31;;;11.24;100.00
55113;BME280;41006;50.920;3.456;2023-05-25T01:59:11;102380.53;;;11.23;100.00
55113;BME280;41006;50.920;3.456;2023-05-25T01:59:43;102382.31;;;11.24;100.00
55113;BME280;41006;50.920;3.456;2023-05-25T02:00:15;102377.00;;;11.24;100.00
55113;BME280;41006;50.920;3.456;2023-05-25T02:00:49;102375.19;;;11.20;100.00
55113;BME280;41006;50.920;3.456;2023-05-25T02:01:21;102376.97;;;11.21;100.00
55113;BME280;41006;50.920;3.456;2023-05-25T02:01:52;102385.78;;;11.14;100.00
55113;BME280;41006;50.920;3.456;2023-05-25T02:02:28;102378.66;;;11.10;100.00
55113;BME280;41006;50.920;3.456;2023-05-25T02:03:00;102384.81;;;11.04;100.00
55113;BME280;41006;50.920;3.456;2023-05-25T02:03:31;102380.47;;;11.14;100.00
55113;BME280;41006;50.920;3.456;2023-05-25T02:04:02;102379.56;;;11.14;100.00
55113;BME280;41006;50.920;3.456;2023-05-25T02:04:33;102380.47;;;11.14;100.00
55113;BME280;41006;50.920;3.456;2023-05-25T02:05:07;102380.47;;;11.14;100.00
55113;BME280;41006;50.920;3.456;2023-05-25T02:05:42;102378.66;;;11.11;100.00
55113;BME280;41006;50.920;3.456;2023-05-25T02:06:16;102378.63;;;11.07;100.00
55113;BME280;41006;50.920;3.456;2023-05-25T02:06:49;102379.53;;;11.12;100.00
55113;BME280;41006;50.920;3.456;2023-05-25T02:07:21;102380.47;;;11.14;100.00
55113;BME280;41006;50.920;3.456;2023-05-25T02:07:54;102384.91;;;11.17;100.00
55113;BME280;41006;50.920;3.456;2023-05-25T02:08:25;102384.81;;;11.09;100.00
55113;BME280;41006;50.920;3.456;2023-05-25T02:08:55;102383.00;;;11.03;100.00
55113;BME280;41006;50.920;3.456;2023-05-25T02:09:26;102385.72;;;11.08;100.00
55113;BME280;41006;50.920;3.456;2023-05-25T02:09:56;102385.75;;;11.09;100.00
55113;BME280;41006;50.920;3.456;2023-05-25T02:10:29;102391.06;;;11.09;100.00
55113;BME280;41006;50.920;3.456;2023-05-25T02:11:04;102385.63;;;11.00;100.00
55113;BME280;41006;50.920;3.456;2023-05-25T02:11:35;102389.28;;;11.10;100.00
55113;BME280;41006;50.920;3.456;2023-05-25T02:12:37;102391.06;;;11.11;100.00
55113;BME280;41006;50.920;3.456;2023-05-25T02:13:07;102391.09;;;11.16;100.00
55113;BME280;41006;50.920;3.456;2023-05-25T02:13:38;102382.19;;;11.12;100.00
55113;BME280;41006;50.920;3.456;2023-05-25T02:14:08;102387.50;;;11.12;100.00
55113;BME280;41006;50.920;3.456;2023-05-25T02:14:42;102385.72;;;11.06;100.00
55113;BME280;41006;50.920;3.456;2023-05-25T02:15:15;102387.38;;;10.97;100.00
55113;BME280;41006;50.920;3.456;2023-05-25T02:15:45;102390.00;;;10.93;100.00
55113;BME280;41006;50.920;3.456;2023-05-25T02:16:18;102388.25;;;10.92;100.00
55113;BME280;41006;50.920;3.456;2023-05-25T02:16:48;102391.75;;;10.90;100.00
55113;BME280;41006;50.920;3.456;2023-05-25T02:17:26;102393.56;;;10.92;100.00
55113;BME280;41006;50.920;3.456;2023-05-25T02:17:57;102389.19;;;10.98;100.00
55113;BME280;41006;50.920;3.456;2023-05-25T02:18:29;102395.31;;;10.93;100.00
55113;BME280;41006;50.920;3.456;2023-05-25T02:18:59;102384.66;;;10.92;100.00
55113;BME280;41006;50.920;3.456;2023-05-25T02:19:31;102398.03;;;10.98;100.00
55113;BME280;41006;50.920;3.456;2023-05-25T02:20:05;102393.72;;;11.09;100.00
55113;BME280;41006;50.920;3.456;2023-05-25T02:20:38;102392.81;;;11.07;100.00
55113;BME280;41006;50.920;3.456;2023-05-25T02:21:09;102388.34;;;11.05;100.00
55113;BME280;41006;50.920;3.456;2023-05-25T02:21:43;102390.06;;;10.98;100.00
55113;BME280;41006;50.920;3.456;2023-05-25T02:22:15;102391.91;;;11.07;100.00
55113;BME280;41006;50.920;3.456;2023-05-25T02:22:48;102394.63;;;11.13;100.00
55113;BME280;41006;50.920;3.456;2023-05-25T02:23:19;102391.94;;;11.10;100.00
55113;BME280;41006;50.920;3.456;2023-05-25T02:23:49;102398.09;;;11.06;100.00
55113;BME280;41006;50.920;3.456;2023-05-25T02:24:23;102396.34;;;11.08;100.00
55113;BME280;41006;50.920;3.456;2023-05-25T02:24:58;102389.22;;;11.01;100.00
55113;BME280;41006;50.920;3.456;2023-05-25T02:25:31;102395.34;;;10.97;100.00
55113;BME280;41006;50.920;3.456;2023-05-25T02:26:04;102391.78;;;10.93;100.00
55113;BME280;41006;50.920;3.456;2023-05-25T02:26:37;102391.75;;;10.90;100.00
55113;BME280;41006;50.920;3.456;2023-05-25T02:27:08;102389.00;;;10.82;100.00
55113;BME280;41006;50.920;3.456;2023-05-25T02:27:44;102391.66;;;10.82;100.00
55113;BME280;41006;50.920;3.456;2023-05-25T02:28:15;102387.28;;;10.84;100.00
55113;BME280;41006;50.920;3.456;2023-05-25T02:28:48;102397.91;;;10.84;100.00
55113;BME280;41006;50.920;3.456;2023-05-25T02:29:18;102394.25;;;10.74;100.00
55113;BME280;41006;50.920;3.456;2023-05-25T02:29:48;102385.38;;;10.74;100.00
55113;BME280;41006;50.920;3.456;2023-05-25T02:30:19;102392.47;;;10.73;100.00
55113;BME280;41006;50.920;3.456;2023-05-25T02:30:54;102388.03;;;10.72;100.00
55113;BME280;41006;50.920;3.456;2023-05-25T02:31:27;102386.25;;;10.71;100.00
55113;BME280;41006;50.920;3.456;2023-05-25T02:31:58;102386.28;;;10.74;100.00
55113;BME280;41006;50.920;3.456;2023-05-25T02:32:28;102387.16;;;10.75;100.00
55113;BME280;41006;50.920;3.456;2023-05-25T02:33:00;102388.97;;;10.76;100.00
55113;BME280;41006;50.920;3.456;2023-05-25T02:33:33;102389.91;;;10.83;100.00
55113;BME280;41006;50.920;3.456;2023-05-25T02:34:03;102395.19;;;10.80;100.00
55113;BME280;41006;50.920;3.456;2023-05-25T02:34:40;102394.31;;;10.82;100.00
55113;BME280;41006;50.920;3.456;2023-05-25T02:35:16;102390.75;;;10.80;100.00
55113;BME280;41006;50.920;3.456;2023-05-25T02:35:48;102389.91;;;10.83;100.00
55113;BME280;41006;50.920;3.456;2023-05-25T02:36:22;102394.41;;;10.91;100.00
55113;BME280;41006;50.920;3.456;2023-05-25T02:36:56;102396.19;;;10.89;100.00
55113;BME280;41006;50.920;3.456;2023-05-25T02:37:32;102389.91;;;10.83;100.00
55113;BME280;41006;50.920;3.456;2023-05-25T02:38:07;102397.84;;;10.81;100.00
55113;BME280;41006;50.920;3.456;2023-05-25T02:38:40;102388.13;;;10.82;100.00
55113;BME280;41006;50.920;3.456;2023-05-25T02:39:10;102399.56;;;10.76;100.00
55113;BME280;41006;50.920;3.456;2023-05-25T02:39:41;102390.78;;;10.83;100.00
55113;BME280;41006;50.920;3.456;2023-05-25T02:40:16;102393.44;;;10.82;100.00
55113;BME280;41006;50.920;3.456;2023-05-25T02:40:48;102389.88;;;10.80;100.00
55113;BME280;41006;50.920;3.456;2023-05-25T02:41:19;102396.97;;;10.79;100.00
55113;BME280;41006;50.920;3.456;2023-05-25T02:41:50;102392.47;;;10.75;100.00
55113;BME280;41006;50.920;3.456;2023-05-25T02:42:20;102396.88;;;10.73;100.00
55113;BME280;41006;50.920;3.456;2023-05-25T02:42:51;102392.50;;;10.78;100.00
55113;BME280;41006;50.920;3.456;2023-05-25T02:43:21;102394.31;;;10.79;100.00
55113;BME280;41006;50.920;3.456;2023-05-25T02:43:54;102389.84;;;10.78;100.00
55113;BME280;41006;50.920;3.456;2023-05-25T02:44:24;102390.72;;;10.77;100.00
55113;BME280;41006;50.920;3.456;2023-05-25T02:44:54;102396.06;;;10.80;100.00
55113;BME280;41006;50.920;3.456;2023-05-25T02:45:25;102391.56;;;10.73;100.00
55113;BME280;41006;50.920;3.456;2023-05-25T02:45:58;102385.38;;;10.76;100.00
55113;BME280;41006;50.920;3.456;2023-05-25T02:46:28;102395.97;;;10.71;100.00
55113;BME280;41006;50.920;3.456;2023-05-25T02:47:01;102390.69;;;10.71;100.00
55113;BME280;41006;50.920;3.456;2023-05-25T02:47:31;102390.56;;;10.62;100.00
55113;BME280;41006;50.920;3.456;2023-05-25T02:48:04;102388.84;;;10.67;100.00
55113;BME280;41006;50.920;3.456;2023-05-25T02:48:34;102394.16;;;10.67;100.00
55113;BME280;41006;50.920;3.456;2023-05-25T02:49:06;102390.59;;;10.65;100.00
55113;BME280;41006;50.920;3.456;2023-05-25T02:49:37;102384.38;;;10.63;100.00
55113;BME280;41006;50.920;3.456;2023-05-25T02:50:10;102387.94;;;10.65;100.00
55113;BME280;41006;50.920;3.456;2023-05-25T02:50:41;102395.03;;;10.64;100.00
55113;BME280;41006;50.920;3.456;2023-05-25T02:51:13;102388.97;;;10.76;100.00
55113;BME280;41006;50.920;3.456;2023-05-25T02:51:46;102396.94;;;10.76;100.00
55113;BME280;41006;50.920;3.456;2023-05-25T02:52:16;102388.94;;;10.74;100.00
55113;BME280;41006;50.920;3.456;2023-05-25T02:52:47;102392.50;;;10.78;100.00
55113;BME280;41006;50.920;3.456;2023-05-25T02:53:17;102391.53;;;10.70;100.00
55113;BME280;41006;50.920;3.456;2023-05-25T02:53:50;102388.81;;;10.64;100.00
55113;BME280;41006;50.920;3.456;2023-05-25T02:54:22;102386.94;;;10.55;100.00
55113;BME280;41006;50.920;3.456;2023-05-25T02:54:55;102394.06;;;10.61;100.00
55113;BME280;41006;50.920;3.456;2023-05-25T02:55:25;102395.03;;;10.64;100.00
55113;BME280;41006;50.920;3.456;2023-05-25T02:55:58;102385.25;;;10.62;100.00
55113;BME280;41006;50.920;3.456;2023-05-25T02:56:29;102391.41;;;10.56;100.00
55113;BME280;41006;50.920;3.456;2023-05-25T02:57:02;102392.28;;;10.57;100.00
55113;BME280;41006;50.920;3.456;2023-05-25T02:57:40;102385.13;;;10.49;100.00
55113;BME280;41006;50.920;3.456;2023-05-25T02:58:15;102389.50;;;10.44;100.00